Time;durP1;ratioP1;P1;durP2;ratioP2;P2;SDS_P1;SDS_P2;PMS_P1;PMS_P2;Temp;Humidity;BMP_temperature;BMP_pressure;BME280_temperature;BME280_humidity;BME280_pressure;Samples;Min_cycle;Max_cycle;Signal;HPM_P1;HPM_P2
2022/10/28 00:02:10;;;;;;;2.22;2.00;;;19.60;57.70;;;;;;5135670;28;20050;-11
2022/10/28 00:04:36;;;;;;;2.58;1.92;;;19.60;57.70;;;;;;5135552;28;20050;-10
2022/10/28 00:07:02;;;;;;;2.92;1.90;;;19.60;57.70;;;;;;5135584;28;20053;-10
2022/10/28 00:09:28;;;;;;;2.30;1.70;;;19.60;57.70;;;;;;5135450;28;20107;-10
2022/10/28 00:11:53;;;;;;;1.90;1.70;;;19.60;57.70;;;;;;5136049;28;20047;-10
2022/10/28 00:14:19;;;;;;;2.78;1.98;;;19.60;57.70;;;;;;5135306;28;20103;-10
2022/10/28 00:16:45;;;;;;;1.98;1.77;;;19.70;57.80;;;;;;5135396;28;20047;-11
2022/10/28 00:19:12;;;;;;;2.30;1.80;;;19.70;57.80;;;;;;5135391;28;20070;-11
2022/10/28 00:21:39;;;;;;;1.60;1.50;;;19.60;57.70;;;;;;5135360;28;20402;-11
2022/10/28 00:24:06;;;;;;;1.65;1.55;;;19.60;57.70;;;;;;5135276;28;20051;-10
2022/10/28 00:26:35;;;;;;;2.08;1.85;;;19.60;57.70;;;;;;5135770;28;20473;-11
2022/10/28 00:29:10;;;;;;;1.83;1.67;;;19.70;57.80;;;;;;5135391;28;20487;-11
2022/10/28 00:31:36;;;;;;;2.60;2.08;;;19.60;57.70;;;;;;5135352;28;20055;-11
2022/10/28 00:34:04;;;;;;;2.28;2.00;;;19.60;57.70;;;;;;5135608;28;20075;-10
2022/10/28 00:36:34;;;;;;;1.75;1.65;;;19.70;57.80;;;;;;5135136;28;20129;-11
2022/10/28 00:39:00;;;;;;;1.70;1.60;;;19.60;57.70;;;;;;5134715;27;20047;-11
2022/10/28 00:41:29;;;;;;;2.28;1.77;;;19.60;57.70;;;;;;5134990;28;20471;-10
2022/10/28 00:43:57;;;;;;;2.33;2.03;;;19.60;57.70;;;;;;5134867;28;20059;-11
2022/10/28 00:46:29;;;;;;;1.73;1.63;;;19.60;57.70;;;;;;5134719;28;20131;-11
2022/10/28 00:49:32;;;;;;;1.92;1.80;;;19.70;57.80;;;;;;5135120;28;20418;-11
2022/10/28 00:52:06;;;;;;;2.40;1.73;;;19.60;57.70;;;;;;5130530;28;20563;-10
2022/10/28 00:54:32;;;;;;;3.78;1.98;;;19.60;57.70;;;;;;5134866;28;20509;-10
2022/10/28 00:57:01;;;;;;;2.35;1.60;;;19.60;57.70;;;;;;5134418;28;20105;-11
2022/10/28 00:59:31;;;;;;;3.13;1.77;;;19.60;57.70;;;;;;5134907;28;20190;-10
2022/10/28 01:01:57;;;;;;;2.05;1.85;;;19.60;57.70;;;;;;5134917;28;20410;-11
2022/10/28 01:04:22;;;;;;;2.33;1.77;;;19.60;57.70;;;;;;5134858;28;20058;-11
2022/10/28 01:06:50;;;;;;;1.70;1.60;;;19.60;57.70;;;;;;5134395;28;20054;-11
2022/10/28 01:09:16;;;;;;;2.78;1.92;;;19.60;57.70;;;;;;5134488;28;20095;-10
2022/10/28 01:11:53;;;;;;;2.30;1.83;;;19.60;57.70;;;;;;5134484;28;20063;-11
2022/10/28 01:14:39;;;;;;;2.30;1.67;;;19.60;57.70;;;;;;5134822;28;20108;-11
2022/10/28 01:17:25;;;;;;;2.13;1.60;;;19.60;57.70;;;;;;5134147;28;20051;-11
2022/10/28 01:20:17;;;;;;;1.60;1.50;;;19.60;57.70;;;;;;5134385;28;20043;-11
2022/10/28 01:23:05;;;;;;;2.13;1.80;;;19.60;57.70;;;;;;5134038;28;20066;-10
2022/10/28 01:26:08;;;;;;;2.15;1.75;;;19.60;57.70;;;;;;5101055;28;20070;-11
2022/10/28 01:29:11;;;;;;;1.90;1.70;;;19.60;57.70;;;;;;5134161;28;20051;-11
2022/10/28 01:31:51;;;;;;;2.83;1.90;;;19.60;57.60;;;;;;5134237;28;20051;-11
2022/10/28 01:34:42;;;;;;;2.33;1.90;;;19.60;57.60;;;;;;5134438;28;20055;-11
2022/10/28 01:37:16;;;;;;;3.25;1.80;;;19.60;57.70;;;;;;5134616;28;20108;-11
2022/10/28 01:40:13;;;;;;;1.85;1.67;;;19.60;57.70;;;;;;5134569;28;20467;-10
2022/10/28 01:42:57;;;;;;;2.10;1.90;;;19.60;57.70;;;;;;5134060;28;20089;-10
2022/10/28 01:45:40;;;;;;;1.80;1.70;;;19.60;57.60;;;;;;5133844;28;20135;-11
2022/10/28 01:48:20;;;;;;;2.08;1.88;;;19.60;57.70;;;;;;5133816;28;20436;-11
2022/10/28 01:51:00;;;;;;;2.17;1.90;;;19.60;57.70;;;;;;5133869;27;20043;-11
2022/10/28 01:53:33;;;;;;;1.83;1.50;;;19.60;57.60;;;;;;5133916;28;20191;-10
2022/10/28 01:56:04;;;;;;;1.60;1.48;;;19.60;57.60;;;;;;5133889;28;20069;-11
2022/10/28 01:58:31;;;;;;;2.15;1.65;;;19.60;58.10;;;;;;5133746;28;20563;-10
2022/10/28 02:00:59;;;;;;;1.63;1.52;;;19.60;57.70;;;;;;5134059;28;20058;-10
2022/10/28 02:03:27;;;;;;;2.90;1.90;;;19.60;57.70;;;;;;5133710;28;20077;-11
2022/10/28 02:05:55;;;;;;;2.20;1.80;;;19.60;57.60;;;;;;5134249;28;20062;-10
2022/10/28 02:08:34;;;;;;;1.92;1.75;;;19.60;57.60;;;;;;5133630;28;20513;-11
2022/10/28 02:11:06;;;;;;;2.13;1.90;;;19.60;57.70;;;;;;5133717;28;20542;-10
2022/10/28 02:13:42;;;;;;;2.47;1.92;;;19.60;57.60;;;;;;5133580;28;20134;-11
2022/10/28 02:16:30;;;;;;;2.60;1.60;;;19.60;57.60;;;;;;5133723;28;20428;-12
2022/10/28 02:19:29;;;;;;;2.00;1.80;;;19.60;57.60;;;;;;5133522;28;20044;-10
2022/10/28 02:22:23;;;;;;;2.15;1.95;;;19.60;57.60;;;;;;5133441;28;20138;-10
2022/10/28 02:25:28;;;;;;;2.13;1.88;;;19.60;57.60;;;;;;5133337;28;20105;-11
2022/10/28 02:28:18;;;;;;;3.15;1.70;;;19.60;57.60;;;;;;5132802;28;20128;-11
2022/10/28 02:30:50;;;;;;;1.70;1.60;;;19.60;57.60;;;;;;5133374;28;20112;-11
2022/10/28 02:33:25;;;;;;;1.60;1.50;;;19.60;57.60;;;;;;5133719;28;20402;-11
2022/10/28 02:36:00;;;;;;;2.35;1.75;;;19.60;57.60;;;;;;5133620;28;20074;-10
2022/10/28 02:38:32;;;;;;;3.55;1.85;;;19.60;57.60;;;;;;5133585;28;20082;-11
2022/10/28 02:41:01;;;;;;;2.50;1.92;;;19.60;57.60;;;;;;5133530;28;20072;-10
2022/10/28 02:43:30;;;;;;;2.03;1.65;;;19.60;57.60;;;;;;5133525;28;20078;-10
2022/10/28 02:46:01;;;;;;;2.45;1.67;;;19.60;57.60;;;;;;5133779;28;20498;-11
2022/10/28 02:48:38;;;;;;;1.70;1.60;;;19.60;57.60;;;;;;5133173;28;20051;-10
2022/10/28 02:51:20;;;;;;;1.85;1.60;;;19.60;57.60;;;;;;5113108;28;20384;-11
2022/10/28 02:54:03;;;;;;;2.45;1.65;;;19.60;57.60;;;;;;5133475;28;20050;-10
2022/10/28 02:56:33;;;;;;;2.13;1.70;;;19.60;57.60;;;;;;5133093;28;20047;-11
2022/10/28 02:58:59;;;;;;;1.50;1.40;;;19.60;57.60;;;;;;5132931;28;20095;-11
2022/10/28 03:01:24;;;;;;;1.92;1.42;;;19.60;57.60;;;;;;5132924;28;20059;-11
2022/10/28 03:03:50;;;;;;;1.83;1.73;;;19.60;57.60;;;;;;5136449;27;20051;-10
2022/10/28 03:06:16;;;;;;;1.70;1.60;;;19.60;57.50;;;;;;5136408;28;20089;-10
2022/10/28 03:08:41;;;;;;;1.90;1.70;;;19.60;57.50;;;;;;5136455;28;20066;-11
2022/10/28 03:11:07;;;;;;;2.60;1.98;;;19.60;57.50;;;;;;5136307;28;20054;-11
2022/10/28 03:13:32;;;;;;;1.80;1.70;;;19.60;57.50;;;;;;5136279;28;20080;-11
2022/10/28 03:15:58;;;;;;;2.25;1.90;;;19.60;57.60;;;;;;5136409;28;20084;-11
2022/10/28 03:18:24;;;;;;;2.55;1.92;;;19.60;57.50;;;;;;5117867;28;20074;-10
2022/10/28 03:20:49;;;;;;;1.63;1.50;;;19.60;57.60;;;;;;5136017;28;20126;-11
2022/10/28 03:23:15;;;;;;;1.92;1.73;;;19.60;57.60;;;;;;5136534;28;20055;-10
2022/10/28 03:25:40;;;;;;;1.88;1.58;;;19.60;57.60;;;;;;5136087;28;20047;-11
2022/10/28 03:28:06;;;;;;;1.60;1.50;;;19.60;57.60;;;;;;5136243;28;20055;-11
2022/10/28 03:30:31;;;;;;;2.00;1.63;;;19.60;57.60;;;;;;5117057;28;20051;-11
2022/10/28 03:32:57;;;;;;;1.77;1.63;;;19.60;57.60;;;;;;5136439;28;20055;-10
2022/10/28 03:35:23;;;;;;;2.33;1.65;;;19.60;57.50;;;;;;5135999;28;20051;-10
2022/10/28 03:37:48;;;;;;;2.38;1.83;;;19.60;57.50;;;;;;5135987;28;20062;-10
2022/10/28 03:40:14;;;;;;;2.20;2.00;;;19.70;57.50;;;;;;5135771;28;20051;-11
2022/10/28 03:42:40;;;;;;;1.63;1.52;;;19.70;57.50;;;;;;5136024;28;20078;-11
2022/10/28 03:45:07;;;;;;;1.65;1.55;;;19.70;57.40;;;;;;5135921;28;20070;-11
2022/10/28 03:47:34;;;;;;;2.22;2.03;;;19.70;57.40;;;;;;5135832;28;20074;-11
2022/10/28 03:49:59;;;;;;;1.75;1.65;;;19.70;57.30;;;;;;5135791;28;20130;-11
2022/10/28 03:52:25;;;;;;;1.83;1.73;;;19.80;57.30;;;;;;5136364;28;20146;-11
2022/10/28 03:54:51;;;;;;;1.58;1.48;;;19.80;57.30;;;;;;5135757;28;20418;-11
2022/10/28 03:57:16;;;;;;;1.92;1.60;;;19.80;57.20;;;;;;5135960;28;20054;-10
2022/10/28 03:59:42;;;;;;;2.38;1.70;;;19.90;57.20;;;;;;5135756;28;20131;-10
2022/10/28 04:02:07;;;;;;;2.22;1.60;;;19.90;57.20;;;;;;5135624;28;20479;-11
2022/10/28 04:04:33;;;;;;;2.15;1.70;;;19.80;57.10;;;;;;5135491;28;20047;-10
2022/10/28 04:06:58;;;;;;;2.65;1.85;;;19.90;57.10;;;;;;5135615;28;20043;-10
2022/10/28 04:09:24;;;;;;;1.70;1.60;;;19.90;57.10;;;;;;5135652;28;20070;-11
2022/10/28 04:11:50;;;;;;;1.80;1.67;;;19.90;57.20;;;;;;5135779;28;20043;-11
2022/10/28 04:14:15;;;;;;;1.80;1.55;;;19.90;57.20;;;;;;5134752;27;20070;-10
2022/10/28 04:16:41;;;;;;;2.05;1.48;;;19.90;57.20;;;;;;5135445;28;20062;-11
2022/10/28 04:19:07;;;;;;;1.90;1.50;;;19.90;57.20;;;;;;5135005;28;20499;-11
2022/10/28 04:21:32;;;;;;;1.73;1.63;;;19.80;57.30;;;;;;5135339;28;20460;-11
2022/10/28 04:23:58;;;;;;;1.90;1.77;;;19.80;57.30;;;;;;5135292;28;20092;-11
2022/10/28 04:26:24;;;;;;;1.70;1.60;;;19.80;57.30;;;;;;5135277;28;20146;-11
2022/10/28 04:28:49;;;;;;;1.70;1.60;;;19.80;57.30;;;;;;5135678;28;20376;-11
2022/10/28 04:31:15;;;;;;;2.42;1.70;;;19.80;57.30;;;;;;5135538;28;20059;-11
2022/10/28 04:33:41;;;;;;;2.35;1.80;;;19.80;57.40;;;;;;5135045;28;20047;-11
2022/10/28 04:36:07;;;;;;;2.88;1.58;;;19.80;57.40;;;;;;5135101;28;20054;-10
2022/10/28 04:38:32;;;;;;;1.95;1.75;;;19.80;57.40;;;;;;5135003;28;20050;-11
2022/10/28 04:40:58;;;;;;;2.15;1.80;;;19.80;57.50;;;;;;5134881;28;20046;-11
2022/10/28 04:43:24;;;;;;;1.88;1.60;;;19.80;57.40;;;;;;5134985;28;20046;-11
2022/10/28 04:45:49;;;;;;;2.38;1.75;;;19.80;57.40;;;;;;5134878;28;20078;-10
2022/10/28 04:48:16;;;;;;;2.45;1.77;;;19.80;57.50;;;;;;5134809;28;20066;-10
2022/10/28 04:50:43;;;;;;;1.70;1.60;;;19.80;57.50;;;;;;5134842;28;20050;-11
2022/10/28 04:53:10;;;;;;;2.05;1.50;;;19.80;57.50;;;;;;5134834;28;20483;-11
2022/10/28 04:55:36;;;;;;;2.65;1.40;;;19.80;57.60;;;;;;5134689;28;20552;-10
2022/10/28 04:58:02;;;;;;;2.70;1.60;;;19.70;57.50;;;;;;5135037;28;20051;-10
2022/10/28 05:00:28;;;;;;;2.03;1.48;;;19.80;57.50;;;;;;5134482;28;20493;-11
2022/10/28 05:02:54;;;;;;;2.03;1.83;;;19.80;57.50;;;;;;5134397;28;20134;-10
2022/10/28 05:05:20;;;;;;;2.30;1.60;;;19.80;57.60;;;;;;5134476;28;20542;-11
2022/10/28 05:07:46;;;;;;;1.73;1.60;;;19.70;57.50;;;;;;5134424;28;20138;-11
2022/10/28 05:10:14;;;;;;;1.52;1.40;;;19.70;57.50;;;;;;5134439;28;20043;-11
2022/10/28 05:12:46;;;;;;;4.95;1.95;;;19.70;57.50;;;;;;5134493;28;20058;-10
2022/10/28 05:15:13;;;;;;;1.88;1.55;;;19.70;57.50;;;;;;5134590;28;20132;-11
2022/10/28 05:17:40;;;;;;;1.95;1.75;;;19.80;57.60;;;;;;5113903;28;20483;-11
2022/10/28 05:20:06;;;;;;;1.63;1.48;;;19.70;57.50;;;;;;5134225;28;20080;-10
2022/10/28 05:22:32;;;;;;;2.22;1.60;;;19.70;57.60;;;;;;5134787;28;20051;-10
2022/10/28 05:24:57;;;;;;;1.63;1.50;;;19.70;57.50;;;;;;5134304;28;20059;-11
2022/10/28 05:27:23;;;;;;;3.05;1.80;;;19.70;57.60;;;;;;5133231;27;20082;-10
2022/10/28 05:29:48;;;;;;;2.35;1.60;;;19.70;57.50;;;;;;5134273;28;20047;-11
2022/10/28 05:32:14;;;;;;;2.13;1.80;;;19.80;57.50;;;;;;5115831;28;20175;-11
2022/10/28 05:34:40;;;;;;;1.60;1.50;;;19.80;57.50;;;;;;5134159;28;20092;-11
2022/10/28 05:37:05;;;;;;;1.77;1.55;;;19.80;57.50;;;;;;5134196;28;20077;-11
2022/10/28 05:39:31;;;;;;;1.73;1.63;;;19.80;57.40;;;;;;5134494;28;20130;-10
2022/10/28 05:41:56;;;;;;;1.90;1.52;;;19.80;57.40;;;;;;5134592;28;20107;-11
2022/10/28 05:44:22;;;;;;;2.03;1.77;;;19.80;57.40;;;;;;5133832;28;20546;-11
2022/10/28 05:46:47;;;;;;;1.95;1.75;;;19.80;57.40;;;;;;5134021;28;20043;-11
2022/10/28 05:49:19;;;;;;;1.80;1.50;;;19.80;57.40;;;;;;5133822;28;20051;-10
2022/10/28 05:51:45;;;;;;;1.70;1.55;;;19.80;57.40;;;;;;5134005;28;20051;-11
2022/10/28 05:54:10;;;;;;;1.88;1.63;;;19.80;57.40;;;;;;5133800;28;20074;-11
2022/10/28 05:56:36;;;;;;;3.20;1.88;;;19.80;57.40;;;;;;5134113;28;20482;-11
2022/10/28 05:59:02;;;;;;;1.85;1.60;;;19.80;57.40;;;;;;5134084;28;20051;-11
2022/10/28 06:01:27;;;;;;;2.03;1.70;;;19.80;57.40;;;;;;5133716;28;20478;-10
2022/10/28 06:03:53;;;;;;;2.45;1.65;;;19.80;57.50;;;;;;5133627;28;20418;-10
2022/10/28 06:06:18;;;;;;;1.98;1.50;;;19.80;57.50;;;;;;5133774;28;20051;-11
2022/10/28 06:08:45;;;;;;;2.42;1.65;;;19.80;57.50;;;;;;5133554;28;20408;-11
2022/10/28 06:11:11;;;;;;;1.98;1.60;;;19.80;57.50;;;;;;5133442;28;20047;-11
2022/10/28 06:13:36;;;;;;;2.53;2.05;;;19.80;57.50;;;;;;5133828;28;20043;-11
2022/10/28 06:16:02;;;;;;;1.70;1.60;;;19.80;57.50;;;;;;5133456;28;20043;-10
2022/10/28 06:18:28;;;;;;;1.90;1.70;;;19.80;57.50;;;;;;5133725;28;20514;-10
2022/10/28 06:20:55;;;;;;;2.10;1.90;;;19.80;57.50;;;;;;5133546;28;20051;-11
2022/10/28 06:23:22;;;;;;;1.92;1.70;;;19.80;57.50;;;;;;5133530;28;20487;-11
2022/10/28 06:25:47;;;;;;;1.95;1.65;;;19.80;57.50;;;;;;5133278;28;20534;-11
2022/10/28 06:28:14;;;;;;;1.90;1.63;;;19.80;57.50;;;;;;5133391;28;20084;-11
2022/10/28 06:30:40;;;;;;;1.55;1.45;;;19.80;57.50;;;;;;5133819;28;20076;-11
2022/10/28 06:33:06;;;;;;;1.67;1.58;;;19.80;57.50;;;;;;5133519;28;20051;-10
2022/10/28 06:35:31;;;;;;;1.60;1.50;;;19.80;57.50;;;;;;5133121;28;20057;-10
2022/10/28 06:37:57;;;;;;;2.20;1.60;;;19.80;57.50;;;;;;5135030;27;20085;-10
2022/10/28 06:40:24;;;;;;;2.85;1.77;;;19.80;57.50;;;;;;5136962;28;20042;-10
2022/10/28 06:42:57;;;;;;;2.33;1.70;;;19.80;57.50;;;;;;5136637;28;20055;-11
2022/10/28 06:45:23;;;;;;;1.75;1.60;;;19.80;57.40;;;;;;5136756;28;20051;-11
2022/10/28 06:47:48;;;;;;;2.55;1.92;;;19.80;57.40;;;;;;5136660;28;20517;-11
2022/10/28 06:50:14;;;;;;;1.63;1.52;;;19.80;57.30;;;;;;5136495;28;20070;-11
2022/10/28 06:52:39;;;;;;;2.05;1.85;;;19.90;57.30;;;;;;5136928;28;20050;-11
2022/10/28 06:55:05;;;;;;;3.10;2.10;;;19.90;57.20;;;;;;5136669;28;20126;-11
2022/10/28 06:57:31;;;;;;;2.25;1.70;;;20.00;57.10;;;;;;5136865;28;20526;-11
2022/10/28 06:59:56;;;;;;;1.85;1.75;;;20.00;57.10;;;;;;5136027;28;20142;-11
2022/10/28 07:02:22;;;;;;;1.90;1.60;;;20.00;56.90;;;;;;5136518;28;20043;-11
2022/10/28 07:04:47;;;;;;;1.92;1.70;;;20.00;56.90;;;;;;5136724;28;20123;-11
2022/10/28 07:07:13;;;;;;;3.53;1.85;;;20.00;56.80;;;;;;5136416;28;20051;-11
2022/10/28 07:09:39;;;;;;;1.83;1.67;;;20.10;57.40;;;;;;5136389;28;20043;-11
2022/10/28 07:12:06;;;;;;;1.83;1.50;;;20.10;57.00;;;;;;5136735;28;20455;-11
2022/10/28 07:14:33;;;;;;;2.38;1.73;;;20.20;56.90;;;;;;5136362;28;20071;-11
2022/10/28 07:16:59;;;;;;;2.05;1.67;;;20.20;56.80;;;;;;5136548;28;20043;-11
2022/10/28 07:19:25;;;;;;;1.73;1.63;;;20.20;56.70;;;;;;5136087;28;20099;-11
2022/10/28 07:21:50;;;;;;;2.70;1.77;;;20.20;56.60;;;;;;5136440;28;20055;-11
2022/10/28 07:24:16;;;;;;;2.88;1.80;;;20.30;56.70;;;;;;5118070;28;20112;-11
2022/10/28 07:26:42;;;;;;;1.90;1.70;;;20.30;56.60;;;;;;5136180;28;20143;-11
2022/10/28 07:29:07;;;;;;;2.75;1.77;;;20.20;56.60;;;;;;5136561;28;20748;-11
2022/10/28 07:31:33;;;;;;;2.85;1.88;;;20.30;56.60;;;;;;5118061;28;20501;-11
2022/10/28 07:33:58;;;;;;;2.53;1.92;;;20.30;56.60;;;;;;5136107;28;20062;-11
2022/10/28 07:36:24;;;;;;;2.58;2.00;;;20.30;56.60;;;;;;5135948;28;20055;-11
2022/10/28 07:38:51;;;;;;;1.85;1.60;;;20.30;56.50;;;;;;5135986;28;20133;-11
2022/10/28 07:41:18;;;;;;;2.17;1.75;;;20.30;56.50;;;;;;5136076;28;20058;-11
2022/10/28 07:43:44;;;;;;;3.10;2.05;;;20.30;56.50;;;;;;5135924;28;20062;-11
2022/10/28 07:46:10;;;;;;;1.83;1.60;;;20.30;57.00;;;;;;5135766;28;20050;-11
2022/10/28 07:48:36;;;;;;;2.42;1.92;;;20.30;56.40;;;;;;5135253;27;20062;-11
2022/10/28 07:51:09;;;;;;;2.17;1.83;;;20.30;56.40;;;;;;5135252;28;20050;-11
2022/10/28 07:53:34;;;;;;;2.50;1.60;;;20.30;56.40;;;;;;5135701;28;20448;-11
2022/10/28 07:56:02;;;;;;;2.78;1.95;;;20.30;56.40;;;;;;5135679;28;20107;-11
2022/10/28 07:58:29;;;;;;;2.47;2.05;;;20.30;56.40;;;;;;5135656;28;20055;-11
2022/10/28 08:00:54;;;;;;;2.30;1.80;;;20.30;56.40;;;;;;5135780;28;20047;-11
2022/10/28 08:03:23;;;;;;;2.35;2.00;;;20.30;56.50;;;;;;5135603;28;20054;-11
2022/10/28 08:05:49;;;;;;;1.60;1.50;;;20.20;56.40;;;;;;5135986;28;20059;-11
2022/10/28 08:08:16;;;;;;;3.10;1.88;;;20.30;56.50;;;;;;5135356;28;20103;-11
2022/10/28 08:10:43;;;;;;;2.28;1.75;;;20.20;56.50;;;;;;5116929;28;20441;-11
2022/10/28 08:13:10;;;;;;;2.17;1.95;;;20.20;56.50;;;;;;5135388;28;20407;-11
2022/10/28 08:15:35;;;;;;;2.25;2.00;;;20.20;56.60;;;;;;5135728;28;20125;-11
2022/10/28 08:18:01;;;;;;;2.60;1.85;;;20.20;56.60;;;;;;5135294;28;20447;-11
2022/10/28 08:20:27;;;;;;;1.63;1.50;;;20.20;56.60;;;;;;5134930;28;20131;-11
2022/10/28 08:22:53;;;;;;;1.85;1.75;;;20.20;56.60;;;;;;5135419;28;20059;-11
2022/10/28 08:25:18;;;;;;;2.70;1.52;;;20.20;56.60;;;;;;5135681;28;20055;-11
2022/10/28 08:27:44;;;;;;;2.83;1.73;;;20.20;56.60;;;;;;5135669;28;20058;-11
2022/10/28 08:30:11;;;;;;;4.82;1.60;;;20.20;56.60;;;;;;5134994;28;20043;-11
2022/10/28 08:32:36;;;;;;;2.05;1.85;;;20.20;56.60;;;;;;5135150;28;20483;-11
2022/10/28 08:35:02;;;;;;;1.85;1.73;;;20.20;56.60;;;;;;5117203;28;20047;-11
2022/10/28 08:37:28;;;;;;;4.10;2.10;;;20.20;56.70;;;;;;5135002;28;20490;-11
2022/10/28 08:39:53;;;;;;;2.13;1.80;;;20.10;56.70;;;;;;5134800;28;20057;-11
2022/10/28 08:42:42;;;;;;;3.13;1.90;;;20.20;56.70;;;;;;5134959;28;20057;-11
2022/10/28 08:45:38;;;;;;;1.98;1.63;;;20.10;56.70;;;;;;5134911;28;20097;-11
2022/10/28 08:48:19;;;;;;;2.92;1.90;;;20.10;56.70;;;;;;5135103;28;20062;-11
2022/10/28 08:50:51;;;;;;;1.70;1.60;;;20.10;56.80;;;;;;5135377;28;20054;-11
2022/10/28 08:53:25;;;;;;;2.72;1.88;;;20.10;56.80;;;;;;5134795;28;20047;-11
2022/10/28 08:55:55;;;;;;;2.00;1.80;;;20.10;56.80;;;;;;5135175;28;20146;-11
2022/10/28 08:58:25;;;;;;;2.72;1.80;;;20.10;56.80;;;;;;5134707;28;20051;-11
2022/10/28 09:00:58;;;;;;;3.10;1.60;;;20.10;56.80;;;;;;5134946;27;20083;-11
2022/10/28 09:03:27;;;;;;;2.35;2.03;;;20.10;56.80;;;;;;5134575;28;20504;-11
2022/10/28 09:06:07;;;;;;;2.47;1.75;;;20.20;56.90;;;;;;5134581;28;20508;-12
2022/10/28 09:08:42;;;;;;;2.00;1.80;;;20.20;56.90;;;;;;5134603;28;20154;-12
2022/10/28 09:11:26;;;;;;;2.80;1.98;;;20.10;56.80;;;;;;5134617;28;20051;-12
2022/10/28 09:13:57;;;;;;;2.33;1.65;;;20.10;56.80;;;;;;5134290;28;20047;-9
2022/10/28 09:16:39;;;;;;;2.65;1.88;;;20.10;57.30;;;;;;5135142;28;20053;-10
2022/10/28 09:19:47;;;;;;;2.58;1.90;;;20.10;56.80;;;;;;5134272;28;20384;-11
2022/10/28 09:22:38;;;;;;;2.88;2.25;;;20.10;56.80;;;;;;5134184;28;20459;-12
2022/10/28 09:25:19;;;;;;;2.55;1.83;;;20.10;56.90;;;;;;5134177;28;20507;-12
2022/10/28 09:28:00;;;;;;;4.00;1.92;;;20.10;56.90;;;;;;5134536;28;20062;-12
2022/10/28 09:31:02;;;;;;;2.47;2.15;;;20.10;56.90;;;;;;5134524;28;20404;-12
2022/10/28 09:33:50;;;;;;;2.13;1.80;;;20.10;56.90;;;;;;5134101;28;20055;-12
2022/10/28 09:36:26;;;;;;;2.25;1.98;;;20.10;56.90;;;;;;5134407;28;20385;-12
2022/10/28 09:38:54;;;;;;;2.25;1.80;;;20.10;56.90;;;;;;5133980;28;20103;-12
2022/10/28 09:41:26;;;;;;;3.15;2.08;;;20.10;56.90;;;;;;5134546;28;20490;-12
2022/10/28 09:43:58;;;;;;;3.58;2.08;;;20.20;56.90;;;;;;5134317;28;20054;-12
2022/10/28 09:46:27;;;;;;;3.22;2.03;;;20.10;56.90;;;;;;5133941;28;20054;-12
2022/10/28 09:48:57;;;;;;;3.40;1.95;;;20.20;56.90;;;;;;5133909;28;20051;-12
2022/10/28 09:51:48;;;;;;;2.35;1.90;;;20.20;56.90;;;;;;5134298;28;20054;-12
2022/10/28 09:54:14;;;;;;;2.60;2.00;;;20.20;56.90;;;;;;5133722;28;20070;-12
2022/10/28 09:56:40;;;;;;;2.53;2.00;;;20.20;56.90;;;;;;5114771;28;20051;-12
2022/10/28 09:59:10;;;;;;;2.58;2.15;;;20.20;56.90;;;;;;5133571;28;20055;-12
2022/10/28 10:01:41;;;;;;;2.10;1.83;;;20.20;56.90;;;;;;5133951;28;20062;-12
2022/10/28 10:04:19;;;;;;;3.15;1.92;;;20.20;56.90;;;;;;5133661;28;20058;-12
2022/10/28 10:06:48;;;;;;;3.15;2.08;;;20.20;56.90;;;;;;5115128;28;21447;-12
2022/10/28 10:09:23;;;;;;;3.22;2.15;;;20.20;56.90;;;;;;5133573;28;20058;-12
2022/10/28 10:11:53;;;;;;;2.33;2.00;;;20.20;56.80;;;;;;5133200;27;20047;-12
2022/10/28 10:14:25;;;;;;;2.85;2.20;;;20.20;56.80;;;;;;5133307;28;20043;-12
2022/10/28 10:17:08;;;;;;;2.35;2.10;;;20.20;56.90;;;;;;5133569;28;20054;-12
2022/10/28 10:19:58;;;;;;;2.10;1.90;;;20.20;56.80;;;;;;5132956;28;20043;-12
2022/10/28 10:22:40;;;;;;;3.90;2.35;;;20.20;56.80;;;;;;5133383;28;20039;-12
2022/10/28 10:25:18;;;;;;;4.13;2.22;;;20.20;56.80;;;;;;5133289;28;20053;-12
2022/10/28 10:27:59;;;;;;;2.28;1.88;;;20.20;56.80;;;;;;5132931;28;20057;-12
2022/10/28 10:30:32;;;;;;;2.38;1.83;;;20.20;56.80;;;;;;5132973;28;20051;-12
2022/10/28 10:33:00;;;;;;;4.50;1.92;;;20.20;56.80;;;;;;5133550;28;20055;-12
2022/10/28 10:35:29;;;;;;;2.83;2.20;;;20.20;56.80;;;;;;5133137;28;20058;-12
2022/10/28 10:37:58;;;;;;;2.10;1.90;;;20.20;56.80;;;;;;5113107;28;20418;-12
2022/10/28 10:40:37;;;;;;;3.42;2.10;;;20.20;56.80;;;;;;5133034;28;20386;-12
2022/10/28 10:43:23;;;;;;;2.58;2.33;;;20.20;57.30;;;;;;5132882;28;20046;-12
2022/10/28 10:46:11;;;;;;;2.05;1.80;;;20.20;56.80;;;;;;5132957;28;20047;-12
2022/10/28 10:48:37;;;;;;;2.45;1.98;;;20.20;56.70;;;;;;5133240;28;20162;-12
2022/10/28 10:51:08;;;;;;;2.50;1.90;;;20.20;56.70;;;;;;5132702;28;20134;-12
2022/10/28 10:53:36;;;;;;;3.70;2.08;;;20.20;56.70;;;;;;5133124;28;20054;-12
2022/10/28 10:56:05;;;;;;;2.45;2.17;;;20.20;56.70;;;;;;5132773;28;20047;-12
2022/10/28 10:58:50;;;;;;;3.65;2.30;;;20.20;56.70;;;;;;5133503;28;20055;-12
2022/10/28 11:01:26;;;;;;;3.45;2.40;;;20.20;56.70;;;;;;5132789;28;20049;-13
2022/10/28 11:03:53;;;;;;;2.33;2.08;;;20.20;56.60;;;;;;5132679;28;20413;-12
2022/10/28 11:06:22;;;;;;;2.80;2.08;;;20.20;56.60;;;;;;5132523;28;20047;-12
2022/10/28 11:08:53;;;;;;;3.72;2.30;;;20.30;56.70;;;;;;5132697;28;20445;-12
2022/10/28 11:11:20;;;;;;;3.00;2.22;;;20.20;56.60;;;;;;5132727;28;20058;-12
2022/10/28 11:13:48;;;;;;;3.25;2.30;;;20.30;56.60;;;;;;5132821;28;20062;-12
2022/10/28 11:16:31;;;;;;;6.70;2.95;;;20.20;56.60;;;;;;5132699;28;20091;-12
2022/10/28 11:18:57;;;;;;;2.13;1.92;;;20.20;56.60;;;;;;5133296;28;20084;-12
2022/10/28 11:21:36;;;;;;;4.82;2.15;;;20.30;56.70;;;;;;5132664;28;20143;-12
2022/10/28 11:24:11;;;;;;;2.83;2.40;;;20.30;56.60;;;;;;5132848;27;20043;-12
2022/10/28 11:26:52;;;;;;;2.30;2.08;;;20.30;56.50;;;;;;5136158;28;20384;-12
2022/10/28 11:29:18;;;;;;;2.42;1.90;;;20.30;56.50;;;;;;5136184;28;20051;-12
2022/10/28 11:32:09;;;;;;;2.10;1.90;;;20.30;56.50;;;;;;5136481;28;20053;-10
2022/10/28 11:35:10;;;;;;;3.83;1.92;;;20.30;56.50;;;;;;5135849;28;20058;-10
2022/10/28 11:37:47;;;;;;;3.97;2.10;;;20.30;56.40;;;;;;5135913;28;20067;-10
2022/10/28 11:40:29;;;;;;;3.67;2.22;;;20.30;56.50;;;;;;5135559;28;20059;-11
2022/10/28 11:43:25;;;;;;;2.95;2.10;;;20.30;56.40;;;;;;5136171;28;20060;-10
2022/10/28 11:46:07;;;;;;;2.35;2.03;;;20.30;56.40;;;;;;5135723;28;20051;-10
2022/10/28 11:48:55;;;;;;;3.90;2.13;;;20.40;56.40;;;;;;5135839;28;20071;-10
2022/10/28 11:51:45;;;;;;;4.75;2.20;;;20.30;56.40;;;;;;5135701;28;20505;-10
2022/10/28 11:54:26;;;;;;;5.28;2.10;;;20.30;56.50;;;;;;5135673;28;20180;-10
2022/10/28 11:57:06;;;;;;;3.60;2.23;;;20.30;56.50;;;;;;5135702;28;20550;-10
2022/10/28 12:00:25;;;;;;;2.78;1.90;;;20.30;56.50;;;;;;5135244;28;20074;-11
2022/10/28 12:03:14;;;;;;;3.13;2.00;;;20.30;56.50;;;;;;5051792;28;20053;-10
2022/10/28 12:05:50;;;;;;;3.13;2.20;;;20.30;56.50;;;;;;5050748;28;20488;-10
2022/10/28 12:08:39;;;;;;;2.58;2.08;;;20.30;56.60;;;;;;5108776;28;20051;-10
2022/10/28 12:11:38;;;;;;;3.70;1.98;;;20.30;56.70;;;;;;5135004;28;20100;-11
2022/10/28 12:14:37;;;;;;;7.38;2.45;;;20.30;56.70;;;;;;5135477;28;20096;-10
2022/10/28 12:17:13;;;;;;;2.97;2.20;;;20.30;56.60;;;;;;5135464;28;20054;-10
2022/10/28 12:20:04;;;;;;;3.20;2.22;;;20.40;56.70;;;;;;5135136;28;20047;-10
2022/10/28 12:22:51;;;;;;;3.63;2.22;;;20.40;56.60;;;;;;5135200;28;20050;-10
2022/10/28 12:25:24;;;;;;;2.33;1.90;;;20.40;56.50;;;;;;5134245;28;20083;-10
2022/10/28 12:27:54;;;;;;;2.42;1.92;;;20.40;56.50;;;;;;5135038;28;20063;-10
2022/10/28 12:30:22;;;;;;;3.15;2.35;;;20.40;56.40;;;;;;5116822;28;20982;-10
2022/10/28 12:32:52;;;;;;;2.08;1.85;;;20.40;56.40;;;;;;5134613;28;20107;-10
2022/10/28 12:35:29;;;;;;;2.92;1.90;;;20.40;56.40;;;;;;5134332;27;20057;-11
2022/10/28 12:38:01;;;;;;;5.28;2.10;;;20.40;56.50;;;;;;5135072;28;20422;-11
2022/10/28 12:40:37;;;;;;;3.72;2.17;;;20.40;56.50;;;;;;5134765;28;20043;-11
2022/10/28 12:43:24;;;;;;;5.15;2.00;;;20.40;56.50;;;;;;5134906;28;20071;-10
2022/10/28 12:45:52;;;;;;;4.07;2.28;;;20.30;56.50;;;;;;5134772;28;20058;-11
2022/10/28 12:48:34;;;;;;;4.13;2.03;;;20.40;56.50;;;;;;5135195;28;20054;-11
2022/10/28 12:51:02;;;;;;;;;;;20.40;56.50;;;;;;5135158;28;20092;-10
2022/10/28 12:53:52;;;;;;;3.45;2.17;;;20.30;56.50;;;;;;5134498;28;19964;-11
2022/10/28 12:56:25;;;;;;;3.63;2.22;;;20.40;56.50;;;;;;5134641;28;20145;-11
2022/10/28 12:59:02;;;;;;;4.88;2.13;;;20.40;56.50;;;;;;5134558;28;20111;-11
2022/10/28 13:01:30;;;;;;;3.38;2.10;;;20.40;56.50;;;;;;5134202;28;20437;-10
2022/10/28 13:03:56;;;;;;;3.17;1.92;;;20.40;56.60;;;;;;5134399;28;20054;-11
2022/10/28 13:06:31;;;;;;;2.75;2.45;;;20.40;56.60;;;;;;5134592;28;20047;-11
2022/10/28 13:09:19;;;;;;;3.55;2.72;;;20.40;56.60;;;;;;5134645;28;20138;-10
2022/10/28 13:11:50;;;;;;;3.45;2.10;;;20.40;56.60;;;;;;5134628;28;20047;-11
2022/10/28 13:14:37;;;;;;;3.25;2.33;;;20.40;56.60;;;;;;5134718;28;20051;-11